Time,TemperatureF,DewpointF,PressureIn,WindDirection,WindDirectionDegrees,WindSpeedMPH,WindSpeedGustMPH,Humidity,HourlyPrecipIn,Conditions,Clouds,dailyrainin,SolarRadiationWatts/m^2,SoftwareType,DateUTC
2013-03-15 00:12:00,29.0,27.0,-100.00,SSW,212,0.0,3.0,91,-99.99,,,0.00,1.000000,,2013-03-15 07:12:00,
2013-03-15 00:22:00,29.0,27.0,-100.00,SSW,212,0.0,3.0,91,-99.99,,,0.00,1.000000,,2013-03-15 07:22:00,
2013-03-15 01:22:00,27.0,25.0,-100.00,SSE,164,0.0,2.0,93,-99.99,,,0.00,1.000000,,2013-03-15 08:22:00,
2013-03-15 02:12:00,26.0,24.0,-100.00,North,358,0.0,2.0,93,-99.99,,,0.00,1.000000,,2013-03-15 09:12:00,
2013-03-15 02:22:00,26.0,24.0,-100.00,North,358,0.0,2.0,93,-99.99,,,0.00,1.000000,,2013-03-15 09:22:00,
2013-03-15 03:12:00,25.0,23.0,-100.00,NW,326,0.0,2.0,92,-99.99,,,0.00,1.000000,,2013-03-15 10:12:00,
2013-03-15 03:23:00,25.0,23.0,-100.00,NW,326,0.0,2.0,92,-99.99,,,0.00,1.000000,,2013-03-15 10:23:00,
2013-03-15 04:22:00,25.0,23.0,-100.00,ESE,118,1.0,2.0,92,-99.99,,,0.00,1.000000,,2013-03-15 11:22:00,
2013-03-15 05:12:00,24.0,22.0,-100.00,SE,141,0.0,2.0,91,-99.99,,,0.00,1.000000,,2013-03-15 12:12:00,
2013-03-15 05:22:00,24.0,22.0,-100.00,SE,141,0.0,2.0,91,-99.99,,,0.00,1.000000,,2013-03-15 12:22:00,
2013-03-15 06:12:00,23.0,21.0,-100.00,SSW,195,0.0,2.0,91,-99.99,,,0.00,1.000000,,2013-03-15 13:12:00,
2013-03-15 07:12:00,23.0,21.0,-100.00,SSE,164,0.0,2.0,91,-99.99,,,0.00,1.000000,,2013-03-15 14:12:00,
2013-03-15 07:22:00,23.0,21.0,-100.00,SSE,164,0.0,2.0,91,-99.99,,,0.00,1.000000,,2013-03-15 14:22:00,
2013-03-15 08:12:00,24.0,22.0,-100.00,SE,143,0.0,0.0,91,-99.99,,,0.00,11.000000,,2013-03-15 15:12:00,
2013-03-15 08:22:00,24.0,22.0,-100.00,SE,143,0.0,0.0,91,-99.99,,,0.00,11.000000,,2013-03-15 15:22:00,
2013-03-15 09:22:00,31.0,28.0,-100.00,NNE,12,2.0,3.0,88,-99.99,,,0.00,133.000000,,2013-03-15 16:22:00,
2013-03-15 09:32:00,31.0,28.0,-100.00,NNE,12,2.0,3.0,88,-99.99,,,0.00,133.000000,,2013-03-15 16:32:00,
2013-03-15 09:51:00,39.0,33.0,-100.00,WNW,298,0.0,3.0,78,-99.99,,,0.00,199.000000,,2013-03-15 16:51:00,
2013-03-15 10:22:00,39.0,33.0,-100.00,WNW,298,0.0,3.0,78,-99.99,,,0.00,199.000000,,2013-03-15 17:22:00,
2013-03-15 10:32:00,39.0,33.0,-100.00,WNW,298,0.0,3.0,78,-99.99,,,0.00,199.000000,,2013-03-15 17:32:00,
2013-03-15 10:42:00,39.0,33.0,-100.00,WNW,298,0.0,3.0,78,-99.99,,,0.00,199.000000,,2013-03-15 17:42:00,
2013-03-15 10:51:00,49.0,33.0,-100.00,SW,217,1.0,3.0,54,0.00,,,0.00,330.000000,,2013-03-15 17:51:00,
2013-03-15 11:12:00,49.0,33.0,-100.00,SW,217,1.0,3.0,54,0.00,,,0.00,330.000000,,2013-03-15 18:12:00,
2013-03-15 11:22:00,49.0,33.0,-100.00,SW,217,1.0,3.0,54,0.00,,,0.00,330.000000,,2013-03-15 18:22:00,
2013-03-15 11:32:00,49.0,33.0,-100.00,SW,217,1.0,3.0,54,0.00,,,0.00,330.000000,,2013-03-15 18:32:00,
2013-03-15 11:42:00,49.0,33.0,-100.00,SW,217,1.0,3.0,54,0.00,,,0.00,330.000000,,2013-03-15 18:42:00,
2013-03-15 12:22:00,61.0,10.0,-100.00,SSW,200,5.0,11.0,13,0.00,,,0.00,565.000000,,2013-03-15 19:22:00,
2013-03-15 13:12:00,64.0,4.0,-100.00,WSW,254,5.0,12.0,9,0.00,,,-99.99,741.000000,,2013-03-15 20:12:00,
2013-03-15 13:51:00,64.0,17.0,-100.00,WSW,239,5.0,14.0,16,-99.99,,,0.00,756.000000,,2013-03-15 20:51:00,
2013-03-15 14:22:00,64.0,17.0,-100.00,WSW,239,5.0,14.0,16,-99.99,,,0.00,756.000000,,2013-03-15 21:22:00,
2013-03-15 14:42:00,64.0,17.0,-100.00,WSW,239,5.0,14.0,16,-99.99,,,0.00,756.000000,,2013-03-15 21:42:00,
2013-03-15 14:51:00,63.0,21.0,-100.00,WSW,249,5.0,10.0,20,0.00,,,0.00,656.000000,,2013-03-15 21:51:00,
2013-03-15 15:22:00,63.0,21.0,-100.00,WSW,249,5.0,10.0,20,0.00,,,0.00,656.000000,,2013-03-15 22:22:00,
2013-03-15 15:32:00,63.0,21.0,-100.00,WSW,249,5.0,10.0,20,0.00,,,0.00,656.000000,,2013-03-15 22:32:00,
2013-03-15 15:42:00,63.0,21.0,-100.00,WSW,249,5.0,10.0,20,0.00,,,0.00,656.000000,,2013-03-15 22:42:00,
2013-03-15 15:51:00,62.0,23.0,-100.00,SSW,199,5.0,10.0,22,0.00,,,0.00,628.000000,,2013-03-15 22:51:00,
2013-03-15 16:22:00,62.0,23.0,-100.00,SSW,199,5.0,10.0,22,0.00,,,0.00,628.000000,,2013-03-15 23:22:00,
2013-03-15 16:32:00,62.0,23.0,-100.00,SSW,199,5.0,10.0,22,0.00,,,0.00,628.000000,,2013-03-15 23:32:00,
2013-03-15 16:42:00,62.0,23.0,-100.00,SSW,199,5.0,10.0,22,0.00,,,0.00,628.000000,,2013-03-15 23:42:00,
2013-03-15 16:51:00,59.0,28.0,-100.00,SSW,199,6.0,13.0,30,0.00,,,0.00,358.000000,,2013-03-15 23:51:00,
2013-03-15 17:12:00,59.0,28.0,-100.00,SSW,199,6.0,13.0,30,0.00,,,0.00,358.000000,,2013-03-16 00:12:00,
2013-03-15 17:22:00,59.0,28.0,-100.00,SSW,199,6.0,13.0,30,0.00,,,0.00,358.000000,,2013-03-16 00:22:00,
2013-03-15 17:32:00,59.0,28.0,-100.00,SSW,199,6.0,13.0,30,0.00,,,0.00,358.000000,,2013-03-16 00:32:00,
2013-03-15 17:42:00,59.0,28.0,-100.00,SSW,199,6.0,13.0,30,0.00,,,0.00,358.000000,,2013-03-16 00:42:00,
2013-03-15 17:51:00,55.0,26.0,-100.00,South,185,5.0,14.0,33,0.00,,,-99.99,222.000000,,2013-03-16 00:51:00,
2013-03-15 18:12:00,55.0,26.0,-100.00,South,185,5.0,14.0,33,0.00,,,-99.99,222.000000,,2013-03-16 01:12:00,
2013-03-15 18:21:00,55.0,26.0,-100.00,South,185,5.0,14.0,33,0.00,,,-99.99,222.000000,,2013-03-16 01:21:00,
2013-03-15 18:32:00,55.0,26.0,-100.00,South,185,5.0,14.0,33,0.00,,,-99.99,222.000000,,2013-03-16 01:32:00,
2013-03-15 18:42:00,55.0,26.0,-100.00,South,185,5.0,14.0,33,0.00,,,-99.99,222.000000,,2013-03-16 01:42:00,
2013-03-15 19:12:00,50.0,19.0,-100.00,ESE,120,3.0,12.0,29,0.00,,,0.00,78.000000,,2013-03-16 02:12:00,
2013-03-15 19:22:00,50.0,19.0,-100.00,ESE,120,3.0,12.0,29,0.00,,,0.00,78.000000,,2013-03-16 02:22:00,
2013-03-15 19:51:00,47.0,25.0,-100.00,SSE,164,3.0,9.0,42,0.00,,,0.00,4.000000,,2013-03-16 02:51:00,
2013-03-15 20:12:00,47.0,25.0,-100.00,SSE,164,3.0,9.0,42,0.00,,,0.00,4.000000,,2013-03-16 03:12:00,
2013-03-15 20:22:00,47.0,25.0,-100.00,SSE,164,3.0,9.0,42,0.00,,,0.00,4.000000,,2013-03-16 03:22:00,
2013-03-15 20:32:00,47.0,25.0,-100.00,SSE,164,3.0,9.0,42,0.00,,,0.00,4.000000,,2013-03-16 03:32:00,
2013-03-15 20:42:00,47.0,25.0,-100.00,SSE,164,3.0,9.0,42,0.00,,,0.00,4.000000,,2013-03-16 03:42:00,
2013-03-15 20:51:00,39.0,26.0,-100.00,SSW,198,2.0,5.0,60,0.00,,,0.00,1.000000,,2013-03-16 03:51:00,
2013-03-15 21:12:00,39.0,26.0,-100.00,SSW,198,2.0,5.0,60,0.00,,,0.00,1.000000,,2013-03-16 04:12:00,
2013-03-15 21:22:00,39.0,26.0,-100.00,SSW,198,2.0,5.0,60,0.00,,,0.00,1.000000,,2013-03-16 04:22:00,
2013-03-15 21:32:00,39.0,26.0,-100.00,SSW,198,2.0,5.0,60,0.00,,,0.00,1.000000,,2013-03-16 04:32:00,
2013-03-15 21:42:00,39.0,26.0,-100.00,SSW,198,2.0,5.0,60,0.00,,,0.00,1.000000,,2013-03-16 04:42:00,
2013-03-15 21:51:00,37.0,26.0,-100.00,West,263,0.0,5.0,64,0.00,,,0.00,1.000000,,2013-03-16 04:51:00,
2013-03-15 22:12:00,37.0,26.0,-100.00,West,263,0.0,5.0,64,0.00,,,0.00,1.000000,,2013-03-16 05:12:00,
2013-03-15 22:21:00,37.0,26.0,-100.00,West,263,0.0,5.0,64,0.00,,,0.00,1.000000,,2013-03-16 05:21:00,
2013-03-15 22:32:00,37.0,26.0,-100.00,West,263,0.0,5.0,64,0.00,,,0.00,1.000000,,2013-03-16 05:32:00,
2013-03-15 22:42:00,37.0,26.0,-100.00,West,263,0.0,5.0,64,0.00,,,0.00,1.000000,,2013-03-16 05:42:00,
2013-03-15 23:22:00,33.0,25.0,-100.00,East,85,1.0,3.0,72,0.00,,,0.00,1.000000,,2013-03-16 06:22:00,